Terminal Aerodrome Forecast
Issued by NWS

Current Version | Previous Version | Text Only | Print | Product List | Glossary Off
Versions: 1 2 3 4 5 6 7 8 9 10 11 12 13 14 15 16 17 18 19 20 21 22 23 24 25 26 27 28 29 30

000
FTUS41 KRLX 191100
TAFCKB
TAF
KCKB 191120Z 1912/2012 00000KT 3/4SM BR BKN003
     FM191300 00000KT 3SM BR BKN006
     FM191400 00000KT 4SM BR BKN015
     FM191600 00000KT 6SM BR BKN025
     FM191800 00000KT P6SM BKN035
     FM192000 VRB03KT P6SM VCTS BKN040CB
     FM200500 00000KT 4SM SHRA BR VCTS OVC040CB
     FM200700 00000KT 3SM SHRA BR VCTS OVC040CB
     FM201100 00000KT 1SM BR VCTS BKN003 OVC035CB=

USA.gov is the U.S. government's official web portal to all federal, state and local government web resources and services.